sensor_id;sensor_type;location;lat;lon;timestamp;temperature;humidity
19039;DHT22;9652;49.014;12.052;2022-09-19T00:01:07;12.00;82.90
19039;DHT22;9652;49.014;12.052;2022-09-19T00:03:39;12.00;82.90
19039;DHT22;9652;49.014;12.052;2022-09-19T00:06:08;12.00;82.70
19039;DHT22;9652;49.014;12.052;2022-09-19T00:08:37;12.00;82.70
19039;DHT22;9652;49.014;12.052;2022-09-19T00:11:06;12.00;82.80
19039;DHT22;9652;49.014;12.052;2022-09-19T00:13:34;11.90;82.70
19039;DHT22;9652;49.014;12.052;2022-09-19T00:16:04;12.00;82.60
19039;DHT22;9652;49.014;12.052;2022-09-19T00:18:31;11.90;82.40
19039;DHT22;9652;49.014;12.052;2022-09-19T00:21:00;11.90;82.20
19039;DHT22;9652;49.014;12.052;2022-09-19T00:23:27;11.90;82.10
19039;DHT22;9652;49.014;12.052;2022-09-19T00:26:13;11.90;82.10
19039;DHT22;9652;49.014;12.052;2022-09-19T00:28:43;11.80;82.20
19039;DHT22;9652;49.014;12.052;2022-09-19T00:31:14;11.80;82.20
19039;DHT22;9652;49.014;12.052;2022-09-19T00:33:44;11.70;82.10
19039;DHT22;9652;49.014;12.052;2022-09-19T00:36:14;11.80;82.30
19039;DHT22;9652;49.014;12.052;2022-09-19T00:38:43;11.70;82.20
19039;DHT22;9652;49.014;12.052;2022-09-19T00:41:14;11.60;82.00
19039;DHT22;9652;49.014;12.052;2022-09-19T00:43:46;11.60;81.90
19039;DHT22;9652;49.014;12.052;2022-09-19T00:46:16;11.60;81.80
19039;DHT22;9652;49.014;12.052;2022-09-19T00:48:48;11.50;81.80
19039;DHT22;9652;49.014;12.052;2022-09-19T00:51:24;11.50;81.60
19039;DHT22;9652;49.014;12.052;2022-09-19T00:54:00;11.50;81.50
19039;DHT22;9652;49.014;12.052;2022-09-19T00:56:30;11.30;80.90
19039;DHT22;9652;49.014;12.052;2022-09-19T00:58:59;11.40;80.60
19039;DHT22;9652;49.014;12.052;2022-09-19T01:01:28;11.30;80.40
19039;DHT22;9652;49.014;12.052;2022-09-19T01:03:55;11.20;80.20
19039;DHT22;9652;49.014;12.052;2022-09-19T01:06:45;11.20;80.10
19039;DHT22;9652;49.014;12.052;2022-09-19T01:09:32;11.10;80.30
19039;DHT22;9652;49.014;12.052;2022-09-19T01:12:24;11.00;80.00
19039;DHT22;9652;49.014;12.052;2022-09-19T01:15:16;11.00;80.20
19039;DHT22;9652;49.014;12.052;2022-09-19T01:17:52;10.90;80.10
19039;DHT22;9652;49.014;12.052;2022-09-19T01:24:16;10.80;80.40
19039;DHT22;9652;49.014;12.052;2022-09-19T01:30:36;10.70;80.50
19039;DHT22;9652;49.014;12.052;2022-09-19T01:33:10;10.70;80.20
19039;DHT22;9652;49.014;12.052;2022-09-19T01:35:48;10.60;80.40
19039;DHT22;9652;49.014;12.052;2022-09-19T01:38:22;10.60;80.50
19039;DHT22;9652;49.014;12.052;2022-09-19T01:40:53;10.50;80.50
19039;DHT22;9652;49.014;12.052;2022-09-19T01:43:23;10.50;80.60
19039;DHT22;9652;49.014;12.052;2022-09-19T01:45:52;10.50;80.60
19039;DHT22;9652;49.014;12.052;2022-09-19T01:48:37;10.50;80.60
19039;DHT22;9652;49.014;12.052;2022-09-19T01:51:23;10.40;80.60
19039;DHT22;9652;49.014;12.052;2022-09-19T01:54:07;10.40;80.60
19039;DHT22;9652;49.014;12.052;2022-09-19T01:57:09;10.40;80.70
19039;DHT22;9652;49.014;12.052;2022-09-19T02:00:03;10.40;80.80
19039;DHT22;9652;49.014;12.052;2022-09-19T02:02:51;10.40;81.20
19039;DHT22;9652;49.014;12.052;2022-09-19T02:05:36;10.50;81.90
19039;DHT22;9652;49.014;12.052;2022-09-19T02:08:17;10.50;82.40
19039;DHT22;9652;49.014;12.052;2022-09-19T02:10:56;10.50;82.80
19039;DHT22;9652;49.014;12.052;2022-09-19T02:13:32;10.50;83.00
19039;DHT22;9652;49.014;12.052;2022-09-19T02:16:14;10.60;83.10
19039;DHT22;9652;49.014;12.052;2022-09-19T02:18:47;10.60;83.10
19039;DHT22;9652;49.014;12.052;2022-09-19T02:21:24;10.70;83.40
19039;DHT22;9652;49.014;12.052;2022-09-19T02:23:57;10.70;83.70
19039;DHT22;9652;49.014;12.052;2022-09-19T02:26:32;10.70;83.90
19039;DHT22;9652;49.014;12.052;2022-09-19T02:29:02;10.80;84.20
19039;DHT22;9652;49.014;12.052;2022-09-19T02:31:33;10.90;84.40
19039;DHT22;9652;49.014;12.052;2022-09-19T02:34:04;10.90;84.40
19039;DHT22;9652;49.014;12.052;2022-09-19T02:36:40;11.00;84.70
19039;DHT22;9652;49.014;12.052;2022-09-19T02:39:14;11.00;84.80
19039;DHT22;9652;49.014;12.052;2022-09-19T02:42:02;11.10;84.80
19039;DHT22;9652;49.014;12.052;2022-09-19T02:44:41;11.10;84.80
19039;DHT22;9652;49.014;12.052;2022-09-19T02:47:27;11.20;84.80
19039;DHT22;9652;49.014;12.052;2022-09-19T02:50:02;11.20;84.60
19039;DHT22;9652;49.014;12.052;2022-09-19T02:52:36;11.20;84.40
19039;DHT22;9652;49.014;12.052;2022-09-19T02:55:17;11.30;84.40
19039;DHT22;9652;49.014;12.052;2022-09-19T02:57:50;11.30;84.40
19039;DHT22;9652;49.014;12.052;2022-09-19T03:00:21;11.30;84.50
19039;DHT22;9652;49.014;12.052;2022-09-19T03:02:53;11.30;84.60
19039;DHT22;9652;49.014;12.052;2022-09-19T03:05:39;11.30;84.60
19039;DHT22;9652;49.014;12.052;2022-09-19T03:08:08;11.40;84.70
19039;DHT22;9652;49.014;12.052;2022-09-19T03:10:45;11.40;84.80
19039;DHT22;9652;49.014;12.052;2022-09-19T03:13:26;11.40;85.00
19039;DHT22;9652;49.014;12.052;2022-09-19T03:16:00;11.50;85.20
19039;DHT22;9652;49.014;12.052;2022-09-19T03:18:37;11.50;85.20
19039;DHT22;9652;49.014;12.052;2022-09-19T03:21:08;11.60;85.30
19039;DHT22;9652;49.014;12.052;2022-09-19T03:23:40;11.60;85.10
19039;DHT22;9652;49.014;12.052;2022-09-19T03:26:17;11.60;85.00
19039;DHT22;9652;49.014;12.052;2022-09-19T03:28:49;11.60;85.00
19039;DHT22;9652;49.014;12.052;2022-09-19T03:31:16;11.60;84.90
19039;DHT22;9652;49.014;12.052;2022-09-19T03:33:45;11.60;84.80
19039;DHT22;9652;49.014;12.052;2022-09-19T03:36:14;11.60;84.70
19039;DHT22;9652;49.014;12.052;2022-09-19T03:38:42;11.70;85.00
19039;DHT22;9652;49.014;12.052;2022-09-19T03:41:13;11.70;84.70
19039;DHT22;9652;49.014;12.052;2022-09-19T03:43:42;11.70;84.60
19039;DHT22;9652;49.014;12.052;2022-09-19T03:46:10;11.70;84.80
19039;DHT22;9652;49.014;12.052;2022-09-19T03:48:39;11.70;84.80
19039;DHT22;9652;49.014;12.052;2022-09-19T03:51:08;11.70;84.70
19039;DHT22;9652;49.014;12.052;2022-09-19T03:53:36;11.70;84.70
19039;DHT22;9652;49.014;12.052;2022-09-19T03:56:04;11.70;84.70
19039;DHT22;9652;49.014;12.052;2022-09-19T03:58:33;11.70;84.70
19039;DHT22;9652;49.014;12.052;2022-09-19T04:01:02;11.70;84.80
19039;DHT22;9652;49.014;12.052;2022-09-19T04:03:33;11.80;84.80
19039;DHT22;9652;49.014;12.052;2022-09-19T04:06:00;11.90;84.90
19039;DHT22;9652;49.014;12.052;2022-09-19T04:08:29;11.80;84.90
19039;DHT22;9652;49.014;12.052;2022-09-19T04:10:58;11.80;85.00
19039;DHT22;9652;49.014;12.052;2022-09-19T04:13:27;11.80;84.90
19039;DHT22;9652;49.014;12.052;2022-09-19T04:16:00;11.90;85.00
19039;DHT22;9652;49.014;12.052;2022-09-19T04:18:28;11.80;85.00
19039;DHT22;9652;49.014;12.052;2022-09-19T04:20:56;11.80;84.90
19039;DHT22;9652;49.014;12.052;2022-09-19T04:23:31;11.90;84.90
19039;DHT22;9652;49.014;12.052;2022-09-19T04:26:19;11.90;84.90
19039;DHT22;9652;49.014;12.052;2022-09-19T04:28:47;11.90;84.90
19039;DHT22;9652;49.014;12.052;2022-09-19T04:31:14;11.90;84.80
19039;DHT22;9652;49.014;12.052;2022-09-19T04:33:46;11.80;84.60
19039;DHT22;9652;49.014;12.052;2022-09-19T04:36:14;11.90;84.80
19039;DHT22;9652;49.014;12.052;2022-09-19T04:38:44;11.80;84.90
19039;DHT22;9652;49.014;12.052;2022-09-19T04:41:19;11.90;85.30
19039;DHT22;9652;49.014;12.052;2022-09-19T04:43:46;11.90;85.40
19039;DHT22;9652;49.014;12.052;2022-09-19T04:46:26;11.90;85.20
19039;DHT22;9652;49.014;12.052;2022-09-19T04:48:59;11.90;85.10
19039;DHT22;9652;49.014;12.052;2022-09-19T04:51:32;11.90;84.90
19039;DHT22;9652;49.014;12.052;2022-09-19T04:54:01;11.90;85.00
19039;DHT22;9652;49.014;12.052;2022-09-19T04:56:28;11.90;85.00
19039;DHT22;9652;49.014;12.052;2022-09-19T04:58:55;12.00;85.10
19039;DHT22;9652;49.014;12.052;2022-09-19T05:01:24;12.00;85.10
19039;DHT22;9652;49.014;12.052;2022-09-19T05:03:52;12.00;85.20
19039;DHT22;9652;49.014;12.052;2022-09-19T05:06:20;12.00;85.40
19039;DHT22;9652;49.014;12.052;2022-09-19T05:08:47;12.00;85.50
19039;DHT22;9652;49.014;12.052;2022-09-19T05:11:31;12.00;85.60
19039;DHT22;9652;49.014;12.052;2022-09-19T05:13:59;12.00;85.70
19039;DHT22;9652;49.014;12.052;2022-09-19T05:16:29;12.10;85.60
19039;DHT22;9652;49.014;12.052;2022-09-19T05:18:59;12.10;85.70
19039;DHT22;9652;49.014;12.052;2022-09-19T05:21:26;12.10;85.70
19039;DHT22;9652;49.014;12.052;2022-09-19T05:23:54;12.10;85.60
19039;DHT22;9652;49.014;12.052;2022-09-19T05:26:21;12.20;85.50
19039;DHT22;9652;49.014;12.052;2022-09-19T05:28:53;12.20;85.40
19039;DHT22;9652;49.014;12.052;2022-09-19T05:31:24;12.20;85.30
19039;DHT22;9652;49.014;12.052;2022-09-19T05:34:13;12.20;85.50
19039;DHT22;9652;49.014;12.052;2022-09-19T05:36:41;12.20;85.50
19039;DHT22;9652;49.014;12.052;2022-09-19T05:39:27;12.20;85.60
19039;DHT22;9652;49.014;12.052;2022-09-19T05:42:30;12.20;85.80
19039;DHT22;9652;49.014;12.052;2022-09-19T05:44:58;12.30;86.00
19039;DHT22;9652;49.014;12.052;2022-09-19T05:47:25;12.30;86.00
19039;DHT22;9652;49.014;12.052;2022-09-19T05:49:53;12.30;85.90
19039;DHT22;9652;49.014;12.052;2022-09-19T05:52:20;12.30;85.80
19039;DHT22;9652;49.014;12.052;2022-09-19T05:55:07;12.40;86.00
19039;DHT22;9652;49.014;12.052;2022-09-19T05:57:49;12.40;85.80
19039;DHT22;9652;49.014;12.052;2022-09-19T06:00:19;12.30;86.00
19039;DHT22;9652;49.014;12.052;2022-09-19T06:02:54;12.40;86.00
19039;DHT22;9652;49.014;12.052;2022-09-19T06:05:23;12.40;85.80
19039;DHT22;9652;49.014;12.052;2022-09-19T06:07:51;12.40;85.80
19039;DHT22;9652;49.014;12.052;2022-09-19T06:10:22;12.40;86.00
19039;DHT22;9652;49.014;12.052;2022-09-19T06:12:50;12.40;86.10
19039;DHT22;9652;49.014;12.052;2022-09-19T06:15:22;12.50;86.00
19039;DHT22;9652;49.014;12.052;2022-09-19T06:17:53;12.40;86.00
19039;DHT22;9652;49.014;12.052;2022-09-19T06:20:36;12.50;86.10
19039;DHT22;9652;49.014;12.052;2022-09-19T06:23:12;12.50;86.20
19039;DHT22;9652;49.014;12.052;2022-09-19T06:25:39;12.50;86.20
19039;DHT22;9652;49.014;12.052;2022-09-19T06:28:10;12.60;86.30
19039;DHT22;9652;49.014;12.052;2022-09-19T06:30:46;12.60;86.50
19039;DHT22;9652;49.014;12.052;2022-09-19T06:33:18;12.60;86.50
19039;DHT22;9652;49.014;12.052;2022-09-19T06:35:56;12.60;86.50
19039;DHT22;9652;49.014;12.052;2022-09-19T06:38:25;12.70;86.50
19039;DHT22;9652;49.014;12.052;2022-09-19T06:40:55;12.70;86.30
19039;DHT22;9652;49.014;12.052;2022-09-19T06:43:46;12.70;86.30
19039;DHT22;9652;49.014;12.052;2022-09-19T06:46:29;12.70;86.30
19039;DHT22;9652;49.014;12.052;2022-09-19T06:49:26;12.70;86.30
19039;DHT22;9652;49.014;12.052;2022-09-19T06:52:05;12.70;86.40
19039;DHT22;9652;49.014;12.052;2022-09-19T06:54:32;12.70;86.40
19039;DHT22;9652;49.014;12.052;2022-09-19T06:57:00;12.80;86.50
19039;DHT22;9652;49.014;12.052;2022-09-19T06:59:27;12.80;86.60
19039;DHT22;9652;49.014;12.052;2022-09-19T07:01:55;12.80;86.80
19039;DHT22;9652;49.014;12.052;2022-09-19T07:04:24;12.90;87.10
19039;DHT22;9652;49.014;12.052;2022-09-19T07:07:07;12.90;87.10
19039;DHT22;9652;49.014;12.052;2022-09-19T07:09:41;12.90;87.10
19039;DHT22;9652;49.014;12.052;2022-09-19T07:12:08;13.10;87.20
19039;DHT22;9652;49.014;12.052;2022-09-19T07:14:36;13.00;87.10
19039;DHT22;9652;49.014;12.052;2022-09-19T07:17:05;13.00;87.10
19039;DHT22;9652;49.014;12.052;2022-09-19T07:19:34;13.00;87.10
19039;DHT22;9652;49.014;12.052;2022-09-19T07:22:27;13.10;87.30
19039;DHT22;9652;49.014;12.052;2022-09-19T07:25:06;13.10;87.40
19039;DHT22;9652;49.014;12.052;2022-09-19T07:27:41;13.10;87.50
19039;DHT22;9652;49.014;12.052;2022-09-19T07:30:10;13.20;87.80
19039;DHT22;9652;49.014;12.052;2022-09-19T07:32:40;13.20;88.20
19039;DHT22;9652;49.014;12.052;2022-09-19T07:35:08;13.30;88.50
19039;DHT22;9652;49.014;12.052;2022-09-19T07:37:38;13.40;88.70
19039;DHT22;9652;49.014;12.052;2022-09-19T07:40:27;13.40;89.10
19039;DHT22;9652;49.014;12.052;2022-09-19T07:43:03;13.50;89.40
19039;DHT22;9652;49.014;12.052;2022-09-19T07:45:56;13.50;89.20
19039;DHT22;9652;49.014;12.052;2022-09-19T07:48:38;13.70;89.00
19039;DHT22;9652;49.014;12.052;2022-09-19T07:51:23;13.70;89.00
19039;DHT22;9652;49.014;12.052;2022-09-19T07:53:55;13.80;89.30
19039;DHT22;9652;49.014;12.052;2022-09-19T07:56:24;13.90;89.40
19039;DHT22;9652;49.014;12.052;2022-09-19T07:58:53;14.00;89.50
19039;DHT22;9652;49.014;12.052;2022-09-19T08:01:21;14.00;89.50
19039;DHT22;9652;49.014;12.052;2022-09-19T08:04:12;14.10;89.50
19039;DHT22;9652;49.014;12.052;2022-09-19T08:06:51;14.20;89.50
19039;DHT22;9652;49.014;12.052;2022-09-19T08:09:19;14.20;89.90
19039;DHT22;9652;49.014;12.052;2022-09-19T08:12:04;14.30;90.10
19039;DHT22;9652;49.014;12.052;2022-09-19T08:14:37;14.40;90.20
19039;DHT22;9652;49.014;12.052;2022-09-19T08:17:05;14.50;90.30
19039;DHT22;9652;49.014;12.052;2022-09-19T08:19:33;14.50;90.40
19039;DHT22;9652;49.014;12.052;2022-09-19T08:22:00;14.60;90.60
19039;DHT22;9652;49.014;12.052;2022-09-19T08:24:34;14.70;90.80
19039;DHT22;9652;49.014;12.052;2022-09-19T08:27:07;14.90;90.90
19039;DHT22;9652;49.014;12.052;2022-09-19T08:29:35;15.00;90.80
19039;DHT22;9652;49.014;12.052;2022-09-19T08:32:07;15.10;90.70
19039;DHT22;9652;49.014;12.052;2022-09-19T08:34:37;15.20;90.60
19039;DHT22;9652;49.014;12.052;2022-09-19T08:37:04;15.30;90.70
19039;DHT22;9652;49.014;12.052;2022-09-19T08:39:35;15.40;90.70
19039;DHT22;9652;49.014;12.052;2022-09-19T08:42:28;15.50;90.60
19039;DHT22;9652;49.014;12.052;2022-09-19T08:45:03;15.60;90.40
19039;DHT22;9652;49.014;12.052;2022-09-19T08:47:35;15.70;90.30
19039;DHT22;9652;49.014;12.052;2022-09-19T08:50:11;15.70;90.40
19039;DHT22;9652;49.014;12.052;2022-09-19T08:52:45;15.80;90.10
19039;DHT22;9652;49.014;12.052;2022-09-19T08:55:22;15.90;90.30
19039;DHT22;9652;49.014;12.052;2022-09-19T08:57:54;16.00;90.40
19039;DHT22;9652;49.014;12.052;2022-09-19T09:00:27;16.00;90.60
19039;DHT22;9652;49.014;12.052;2022-09-19T09:03:03;16.10;90.70
19039;DHT22;9652;49.014;12.052;2022-09-19T09:05:48;16.30;90.50
19039;DHT22;9652;49.014;12.052;2022-09-19T09:08:34;16.30;89.60
19039;DHT22;9652;49.014;12.052;2022-09-19T09:11:18;16.40;89.20
19039;DHT22;9652;49.014;12.052;2022-09-19T09:13:59;16.40;88.80
19039;DHT22;9652;49.014;12.052;2022-09-19T09:16:47;16.40;88.60
19039;DHT22;9652;49.014;12.052;2022-09-19T09:19:44;16.40;88.60
19039;DHT22;9652;49.014;12.052;2022-09-19T09:22:25;16.50;89.30
19039;DHT22;9652;49.014;12.052;2022-09-19T09:25:21;16.50;90.10
19039;DHT22;9652;49.014;12.052;2022-09-19T09:28:01;16.70;90.40
19039;DHT22;9652;49.014;12.052;2022-09-19T09:31:03;16.70;90.30
19039;DHT22;9652;49.014;12.052;2022-09-19T09:33:47;16.90;89.10
19039;DHT22;9652;49.014;12.052;2022-09-19T09:36:19;16.90;88.70
19039;DHT22;9652;49.014;12.052;2022-09-19T09:38:57;17.00;89.20
19039;DHT22;9652;49.014;12.052;2022-09-19T09:41:36;17.00;89.40
19039;DHT22;9652;49.014;12.052;2022-09-19T09:44:24;17.00;89.10
19039;DHT22;9652;49.014;12.052;2022-09-19T09:47:04;17.10;89.40
19039;DHT22;9652;49.014;12.052;2022-09-19T09:49:40;17.30;89.60
19039;DHT22;9652;49.014;12.052;2022-09-19T09:52:24;17.40;89.90
19039;DHT22;9652;49.014;12.052;2022-09-19T09:55:14;17.50;87.70
19039;DHT22;9652;49.014;12.052;2022-09-19T09:58:19;17.50;86.60
19039;DHT22;9652;49.014;12.052;2022-09-19T10:01:03;17.60;85.00
19039;DHT22;9652;49.014;12.052;2022-09-19T10:04:04;17.60;84.30
19039;DHT22;9652;49.014;12.052;2022-09-19T10:06:48;17.50;84.50
19039;DHT22;9652;49.014;12.052;2022-09-19T10:09:32;17.50;85.00
19039;DHT22;9652;49.014;12.052;2022-09-19T10:12:12;17.50;84.70
19039;DHT22;9652;49.014;12.052;2022-09-19T10:14:48;17.50;84.90
19039;DHT22;9652;49.014;12.052;2022-09-19T10:17:45;17.60;85.80
19039;DHT22;9652;49.014;12.052;2022-09-19T10:20:20;17.70;85.00
19039;DHT22;9652;49.014;12.052;2022-09-19T10:22:51;17.60;85.20
19039;DHT22;9652;49.014;12.052;2022-09-19T10:25:21;17.70;85.50
19039;DHT22;9652;49.014;12.052;2022-09-19T10:27:54;17.70;84.70
19039;DHT22;9652;49.014;12.052;2022-09-19T10:30:37;17.70;84.80
19039;DHT22;9652;49.014;12.052;2022-09-19T10:33:26;17.70;83.90
19039;DHT22;9652;49.014;12.052;2022-09-19T10:36:18;17.80;83.90
19039;DHT22;9652;49.014;12.052;2022-09-19T10:38:49;17.80;82.50
19039;DHT22;9652;49.014;12.052;2022-09-19T10:41:22;17.90;83.80
19039;DHT22;9652;49.014;12.052;2022-09-19T10:43:56;17.80;83.50
19039;DHT22;9652;49.014;12.052;2022-09-19T10:46:30;17.90;83.50
19039;DHT22;9652;49.014;12.052;2022-09-19T10:49:30;18.00;84.00
19039;DHT22;9652;49.014;12.052;2022-09-19T10:52:06;18.00;83.00
19039;DHT22;9652;49.014;12.052;2022-09-19T10:54:35;18.00;83.00
19039;DHT22;9652;49.014;12.052;2022-09-19T10:57:34;18.00;82.30
19039;DHT22;9652;49.014;12.052;2022-09-19T11:00:24;18.00;79.20
19039;DHT22;9652;49.014;12.052;2022-09-19T11:03:01;18.00;79.40
19039;DHT22;9652;49.014;12.052;2022-09-19T11:05:32;18.00;80.80
19039;DHT22;9652;49.014;12.052;2022-09-19T11:08:03;17.90;80.30
19039;DHT22;9652;49.014;12.052;2022-09-19T11:10:44;17.80;80.30
19039;DHT22;9652;49.014;12.052;2022-09-19T11:13:20;17.80;80.50
19039;DHT22;9652;49.014;12.052;2022-09-19T11:16:08;17.70;81.10
19039;DHT22;9652;49.014;12.052;2022-09-19T11:19:05;17.60;80.40
19039;DHT22;9652;49.014;12.052;2022-09-19T11:21:56;17.60;80.20
19039;DHT22;9652;49.014;12.052;2022-09-19T11:24:50;17.50;82.00
19039;DHT22;9652;49.014;12.052;2022-09-19T11:27:41;17.50;81.90
19039;DHT22;9652;49.014;12.052;2022-09-19T11:30:26;17.50;80.90
19039;DHT22;9652;49.014;12.052;2022-09-19T11:33:20;17.50;81.80
19039;DHT22;9652;49.014;12.052;2022-09-19T11:36:28;17.50;79.70
19039;DHT22;9652;49.014;12.052;2022-09-19T11:39:06;17.50;81.70
19039;DHT22;9652;49.014;12.052;2022-09-19T11:41:55;17.50;83.30
19039;DHT22;9652;49.014;12.052;2022-09-19T11:44:49;17.60;82.90
19039;DHT22;9652;49.014;12.052;2022-09-19T11:47:38;17.70;82.30
19039;DHT22;9652;49.014;12.052;2022-09-19T11:50:35;17.80;83.30
19039;DHT22;9652;49.014;12.052;2022-09-19T11:53:30;18.00;82.30
19039;DHT22;9652;49.014;12.052;2022-09-19T11:56:30;18.10;82.30
19039;DHT22;9652;49.014;12.052;2022-09-19T11:59:21;18.20;79.60
19039;DHT22;9652;49.014;12.052;2022-09-19T12:02:22;18.30;80.80
19039;DHT22;9652;49.014;12.052;2022-09-19T12:05:13;18.30;79.30
19039;DHT22;9652;49.014;12.052;2022-09-19T12:07:55;18.40;80.00
19039;DHT22;9652;49.014;12.052;2022-09-19T12:10:36;18.60;79.80
19039;DHT22;9652;49.014;12.052;2022-09-19T12:13:10;18.60;80.60
19039;DHT22;9652;49.014;12.052;2022-09-19T12:15:48;18.60;79.80
19039;DHT22;9652;49.014;12.052;2022-09-19T12:18:21;18.70;80.40
19039;DHT22;9652;49.014;12.052;2022-09-19T12:20:56;18.80;79.00
19039;DHT22;9652;49.014;12.052;2022-09-19T12:23:33;18.80;79.00
19039;DHT22;9652;49.014;12.052;2022-09-19T12:26:33;18.80;78.40
19039;DHT22;9652;49.014;12.052;2022-09-19T12:29:09;18.80;78.10
19039;DHT22;9652;49.014;12.052;2022-09-19T12:31:49;18.80;77.30
19039;DHT22;9652;49.014;12.052;2022-09-19T12:34:26;18.90;79.10
19039;DHT22;9652;49.014;12.052;2022-09-19T12:37:08;18.90;77.70
19039;DHT22;9652;49.014;12.052;2022-09-19T12:39:47;19.00;77.20
19039;DHT22;9652;49.014;12.052;2022-09-19T12:42:25;19.00;76.40
19039;DHT22;9652;49.014;12.052;2022-09-19T12:45:05;19.00;77.40
19039;DHT22;9652;49.014;12.052;2022-09-19T12:47:48;19.00;77.20
19039;DHT22;9652;49.014;12.052;2022-09-19T12:50:54;19.00;77.70
19039;DHT22;9652;49.014;12.052;2022-09-19T12:53:32;19.00;77.70
19039;DHT22;9652;49.014;12.052;2022-09-19T12:56:07;19.00;75.80
19039;DHT22;9652;49.014;12.052;2022-09-19T12:58:47;18.80;76.00
19039;DHT22;9652;49.014;12.052;2022-09-19T13:01:27;18.80;75.40
19039;DHT22;9652;49.014;12.052;2022-09-19T13:04:10;18.70;76.20
19039;DHT22;9652;49.014;12.052;2022-09-19T13:06:53;18.60;75.20
19039;DHT22;9652;49.014;12.052;2022-09-19T13:09:29;18.50;76.20
19039;DHT22;9652;49.014;12.052;2022-09-19T13:12:06;18.40;76.40
19039;DHT22;9652;49.014;12.052;2022-09-19T13:14:44;18.40;75.70
19039;DHT22;9652;49.014;12.052;2022-09-19T13:17:15;18.40;76.80
19039;DHT22;9652;49.014;12.052;2022-09-19T13:20:01;18.50;78.90
19039;DHT22;9652;49.014;12.052;2022-09-19T13:22:49;18.60;79.20
19039;DHT22;9652;49.014;12.052;2022-09-19T13:25:37;18.60;78.50
19039;DHT22;9652;49.014;12.052;2022-09-19T13:28:28;18.70;78.90
19039;DHT22;9652;49.014;12.052;2022-09-19T13:31:11;18.80;75.60
19039;DHT22;9652;49.014;12.052;2022-09-19T13:33:45;18.80;75.80
19039;DHT22;9652;49.014;12.052;2022-09-19T13:39:51;19.00;76.60
19039;DHT22;9652;49.014;12.052;2022-09-19T13:42:26;19.00;73.90
19039;DHT22;9652;49.014;12.052;2022-09-19T13:45:06;19.00;76.00
19039;DHT22;9652;49.014;12.052;2022-09-19T13:47:44;19.10;75.50
19039;DHT22;9652;49.014;12.052;2022-09-19T13:50:20;19.10;75.50
19039;DHT22;9652;49.014;12.052;2022-09-19T13:52:54;19.00;74.00
19039;DHT22;9652;49.014;12.052;2022-09-19T13:55:31;19.00;73.90
19039;DHT22;9652;49.014;12.052;2022-09-19T13:58:17;18.90;72.60
19039;DHT22;9652;49.014;12.052;2022-09-19T14:01:15;18.80;71.90
19039;DHT22;9652;49.014;12.052;2022-09-19T14:03:47;18.70;72.70
19039;DHT22;9652;49.014;12.052;2022-09-19T14:06:24;18.70;75.80
19039;DHT22;9652;49.014;12.052;2022-09-19T14:09:14;18.80;76.90
19039;DHT22;9652;49.014;12.052;2022-09-19T14:11:47;18.90;75.60
19039;DHT22;9652;49.014;12.052;2022-09-19T14:14:52;19.00;75.80
19039;DHT22;9652;49.014;12.052;2022-09-19T14:17:29;19.10;72.40
19039;DHT22;9652;49.014;12.052;2022-09-19T14:19:59;19.10;72.30
19039;DHT22;9652;49.014;12.052;2022-09-19T14:22:41;19.10;72.60
19039;DHT22;9652;49.014;12.052;2022-09-19T14:25:21;19.00;70.20
19039;DHT22;9652;49.014;12.052;2022-09-19T14:28:00;18.90;71.00
19039;DHT22;9652;49.014;12.052;2022-09-19T14:34:31;18.80;72.40
19039;DHT22;9652;49.014;12.052;2022-09-19T14:37:55;18.80;72.50
19039;DHT22;9652;49.014;12.052;2022-09-19T14:40:41;18.80;72.40
19039;DHT22;9652;49.014;12.052;2022-09-19T14:46:55;19.00;71.40
19039;DHT22;9652;49.014;12.052;2022-09-19T14:49:36;19.00;73.20
19039;DHT22;9652;49.014;12.052;2022-09-19T14:52:11;19.00;72.00
19039;DHT22;9652;49.014;12.052;2022-09-19T14:54:43;19.10;72.10
19039;DHT22;9652;49.014;12.052;2022-09-19T14:57:20;19.10;72.40
19039;DHT22;9652;49.014;12.052;2022-09-19T14:59:48;19.20;71.60
19039;DHT22;9652;49.014;12.052;2022-09-19T15:02:21;19.20;71.80
19039;DHT22;9652;49.014;12.052;2022-09-19T15:04:59;19.20;70.70
19039;DHT22;9652;49.014;12.052;2022-09-19T15:07:30;19.20;69.70
19039;DHT22;9652;49.014;12.052;2022-09-19T15:09:59;19.20;70.10
19039;DHT22;9652;49.014;12.052;2022-09-19T15:12:29;19.10;70.80
19039;DHT22;9652;49.014;12.052;2022-09-19T15:14:58;19.20;71.60
19039;DHT22;9652;49.014;12.052;2022-09-19T15:17:27;19.20;72.70
19039;DHT22;9652;49.014;12.052;2022-09-19T15:20:08;19.30;72.80
19039;DHT22;9652;49.014;12.052;2022-09-19T15:22:41;19.50;72.30
19039;DHT22;9652;49.014;12.052;2022-09-19T15:25:21;19.60;71.80
19039;DHT22;9652;49.014;12.052;2022-09-19T15:27:53;19.80;72.00
19039;DHT22;9652;49.014;12.052;2022-09-19T15:30:24;19.90;70.80
19039;DHT22;9652;49.014;12.052;2022-09-19T15:32:56;19.90;69.80
19039;DHT22;9652;49.014;12.052;2022-09-19T15:35:27;20.00;69.40
19039;DHT22;9652;49.014;12.052;2022-09-19T15:37:57;19.90;69.00
19039;DHT22;9652;49.014;12.052;2022-09-19T15:40:29;19.90;68.80
19039;DHT22;9652;49.014;12.052;2022-09-19T15:42:58;19.90;67.80
19039;DHT22;9652;49.014;12.052;2022-09-19T15:45:35;19.80;67.40
19039;DHT22;9652;49.014;12.052;2022-09-19T15:48:15;19.70;66.40
19039;DHT22;9652;49.014;12.052;2022-09-19T15:50:48;19.60;66.00
19039;DHT22;9652;49.014;12.052;2022-09-19T15:53:25;19.50;66.90
19039;DHT22;9652;49.014;12.052;2022-09-19T15:56:07;19.30;66.90
19039;DHT22;9652;49.014;12.052;2022-09-19T15:58:38;19.10;67.50
19039;DHT22;9652;49.014;12.052;2022-09-19T16:01:17;18.90;67.60
19039;DHT22;9652;49.014;12.052;2022-09-19T16:03:53;18.60;68.00
19039;DHT22;9652;49.014;12.052;2022-09-19T16:06:32;18.40;69.30
19039;DHT22;9652;49.014;12.052;2022-09-19T16:09:29;18.10;71.30
19039;DHT22;9652;49.014;12.052;2022-09-19T16:11:59;17.90;72.40
19039;DHT22;9652;49.014;12.052;2022-09-19T16:14:30;17.80;72.60
19039;DHT22;9652;49.014;12.052;2022-09-19T16:17:10;17.70;72.20
19039;DHT22;9652;49.014;12.052;2022-09-19T16:19:43;17.50;72.00
19039;DHT22;9652;49.014;12.052;2022-09-19T16:22:15;17.30;72.40
19039;DHT22;9652;49.014;12.052;2022-09-19T16:24:48;17.20;72.90
19039;DHT22;9652;49.014;12.052;2022-09-19T16:27:21;17.00;73.10
19039;DHT22;9652;49.014;12.052;2022-09-19T16:29:51;16.90;72.80
19039;DHT22;9652;49.014;12.052;2022-09-19T16:32:21;16.80;72.80
19039;DHT22;9652;49.014;12.052;2022-09-19T16:34:51;16.70;73.10
19039;DHT22;9652;49.014;12.052;2022-09-19T16:37:29;16.70;73.30
19039;DHT22;9652;49.014;12.052;2022-09-19T16:40:04;16.60;73.30
19039;DHT22;9652;49.014;12.052;2022-09-19T16:42:34;16.50;73.70
19039;DHT22;9652;49.014;12.052;2022-09-19T16:45:12;16.50;74.00
19039;DHT22;9652;49.014;12.052;2022-09-19T16:47:44;16.40;73.40
19039;DHT22;9652;49.014;12.052;2022-09-19T16:50:13;16.40;74.20